GRZ504 Details

Departure: Fairbanks International Airport (PAFA)
Arrival: Ted Stevens Anchorage International Airport (PANC) at N/A
Route: PUYVO2 PUYVO KROTO4
Notes:


Current Weather Information
PAFA 171653Z 02007KT 10SM FEW001 FEW090 11/06 A3045 RMK AO2 SLP317 LOW CLDS NE-E T01110061
PANC 171653Z 35018G27KT 10SM FEW200 16/03 A3017 RMK AO2 PK WND 35027/1653 SLP218 T01560033